Time;durP1;ratioP1;P1;durP2;ratioP2;P2;SDS_P1;SDS_P2;PMS_P1;PMS_P2;Temp;Humidity;BMP_temperature;BMP_pressure;BME280_temperature;BME280_humidity;BME280_pressure;Samples;Min_cycle;Max_cycle;Signal;HPM_P1;HPM_P2
2023/03/14 02:52:52;;;;;;;15.70;9.10;;;;;;;1.24;55.52;101630.02;104916;1293;612807;-96
2023/03/14 02:55:26;;;;;;;8.70;5.00;;;;;;;1.21;55.47;101632.27;107186;1254;59330;-94
2023/03/14 02:58:02;;;;;;;9.80;5.50;;;;;;;1.19;55.39;101629.17;107697;1254;59726;-96
2023/03/14 03:00:36;;;;;;;11.00;5.50;;;;;;;1.19;55.41;101640.72;107691;1254;72030;-92
2023/03/14 03:03:08;;;;;;;9.00;5.10;;;;;;;1.17;55.41;101642.45;108437;1254;64559;-95
2023/03/14 03:05:38;;;;;;;8.50;4.20;;;;;;;1.16;55.44;101641.95;106839;1253;623942;-95
2023/03/14 03:08:07;;;;;;;8.20;4.80;;;;;;;1.15;55.48;101644.72;107539;1254;59126;-95
2023/03/14 03:14:02;;;;;;;8.40;4.70;;;;;;;1.14;55.36;101659.00;109000;1255;72252;-95
2023/03/14 03:16:44;;;;;;;8.50;4.60;;;;;;;1.13;55.47;101657.78;109017;1251;65385;-94
2023/03/14 03:19:35;;;;;;;10.50;5.20;;;;;;;1.12;55.54;101659.36;108046;1257;71164;-95
2023/03/14 03:22:15;;;;;;;13.10;6.30;;;;;;;1.09;55.66;101659.55;108169;1260;59522;-92
2023/03/14 03:25:10;;;;;;;13.80;6.30;;;;;;;1.04;55.71;101653.20;108305;1260;61051;-92
2023/03/14 03:27:40;;;;;;;14.50;6.90;;;;;;;1.02;55.69;101658.20;107989;1266;74400;-93
2023/03/14 03:30:13;;;;;;;9.90;6.40;;;;;;;1.02;55.74;101653.55;107520;1260;64036;-94
2023/03/14 03:32:59;;;;;;;7.20;4.40;;;;;;;1.02;55.93;101654.90;107751;1260;72736;-95
2023/03/14 03:36:06;;;;;;;6.90;4.10;;;;;;;1.01;55.73;101654.74;107058;1263;60101;-95
2023/03/14 03:38:39;;;;;;;7.50;3.90;;;;;;;0.96;55.63;101645.98;108543;1264;59726;-95
2023/03/14 03:41:38;;;;;;;6.80;4.00;;;;;;;0.92;55.61;101648.77;107847;1263;71979;-96
2023/03/14 03:44:07;;;;;;;4.50;2.90;;;;;;;0.92;55.65;101644.11;107523;1264;64740;-95
2023/03/14 03:46:46;;;;;;;6.30;3.00;;;;;;;0.92;55.66;101644.09;107179;1264;72589;-95
2023/03/14 03:50:15;;;;;;;5.90;4.30;;;;;;;0.90;55.65;101641.54;109051;1249;58333;-96
2023/03/14 03:53:33;;;;;;;4.80;2.90;;;;;;;0.87;55.75;101636.89;109333;1253;61009;-95
2023/03/14 03:56:20;;;;;;;7.30;3.90;;;;;;;0.86;55.84;101636.21;108999;1258;71512;-96
2023/03/14 04:00:05;;;;;;;10.40;5.70;;;;;;;0.87;55.85;101638.44;106464;1287;612159;-95
2023/03/14 04:03:28;;;;;;;9.40;4.60;;;;;;;0.85;55.82;101638.80;108843;1265;61645;-95
2023/03/14 04:06:06;;;;;;;12.10;4.50;;;;;;;0.84;55.81;101639.14;108259;1266;60301;-96
2023/03/14 04:09:33;;;;;;;9.40;4.60;;;;;;;0.83;55.74;101634.14;107971;1274;71118;-96
2023/03/14 04:13:20;;;;;;;12.80;5.00;;;;;;;0.83;55.69;101631.58;104264;1254;5004414;31
2023/03/14 04:16:23;;;;;;;;;;;;;;;0.85;55.71;101633.81;109017;1257;58049;-93
2023/03/14 04:19:42;;;;;;;7.20;4.10;;;;;;;0.83;55.39;101629.34;108974;1262;58806;-94
2023/03/14 04:22:28;;;;;;;6.80;3.90;;;;;;;0.87;55.31;101633.79;107736;1263;72243;-96
2023/03/14 04:25:19;;;;;;;8.70;4.80;;;;;;;0.89;55.14;101632.59;107660;1263;64234;-95
2023/03/14 04:28:09;;;;;;;12.80;5.60;;;;;;;0.92;55.06;101633.26;107726;1263;72857;-95
2023/03/14 04:30:53;;;;;;;;;;;;;;;0.94;54.94;101635.66;107515;1264;59692;-93
2023/03/14 04:33:35;;;;;;;9.40;4.20;;;;;;;0.99;54.80;101639.42;107596;1263;59705;-93
2023/03/14 04:36:08;;;;;;;9.20;5.00;;;;;;;1.01;54.69;101632.71;106922;1270;73602;-95
2023/03/14 04:39:20;;;;;;;13.90;5.10;;;;;;;1.08;54.46;101633.88;106677;1264;62285;-96
2023/03/14 04:41:54;;;;;;;13.60;5.10;;;;;;;1.12;54.23;101631.97;107019;1265;73984;-95
2023/03/14 04:44:43;;;;;;;6.60;3.10;;;;;;;1.15;54.01;101629.89;108870;1255;58334;-96
2023/03/14 04:47:15;;;;;;;9.30;4.00;;;;;;;1.22;54.01;101628.65;106685;1254;60060;-96
2023/03/14 04:53:52;;;;;;;7.10;3.90;;;;;;;1.70;53.21;101633.70;108691;1261;65475;-95
2023/03/14 05:09:57;;;;;;;9.00;3.40;;;;;;;6.11;45.12;101621.99;107866;1272;74626;-96
2023/03/14 05:13:25;;;;;;;9.60;3.70;;;;;;;6.89;42.97;101628.27;107869;1272;62709;-95
2023/03/14 05:19:40;;;;;;;6.70;3.90;;;;;;;7.59;40.76;101621.14;108066;1267;59297;-95
2023/03/14 05:22:46;;;;;;;6.80;3.30;;;;;;;7.92;40.12;101618.86;106616;1269;61778;-96
2023/03/14 05:26:21;;;;;;;5.40;3.20;;;;;;;8.22;39.13;101620.30;107044;1261;73213;31
2023/03/14 05:29:49;;;;;;;;;;;;;;;8.46;38.31;101616.38;107878;1269;64998;-96
2023/03/14 05:33:28;;;;;;;8.10;3.80;;;;;;;8.46;37.73;101612.89;108146;1270;71798;-96
2023/03/14 05:36:52;;;;;;;5.80;3.60;;;;;;;8.53;37.08;101613.85;107827;1267;60961;-96
2023/03/14 05:40:26;;;;;;;6.10;3.30;;;;;;;8.71;36.83;101610.77;108153;1267;60387;-94
2023/03/14 05:43:49;;;;;;;6.00;3.70;;;;;;;8.62;36.82;101611.76;108255;1267;73722;-92
2023/03/14 05:50:27;;;;;;;6.80;3.10;;;;;;;9.09;36.29;101618.61;108685;1264;72016;-92
2023/03/14 05:53:55;;;;;;;6.60;3.30;;;;;;;9.71;35.11;101617.24;108611;1274;58286;-95
2023/03/14 05:57:15;;;;;;;13.10;6.40;;;;;;;10.28;34.36;101618.59;108428;1267;59932;-95
2023/03/14 06:00:29;;;;;;;8.10;4.10;;;;;;;10.79;33.51;101619.84;107889;1267;72749;-94
2023/03/14 06:03:48;;;;;;;9.40;5.10;;;;;;;11.16;32.82;101623.79;108622;1268;65655;-95
2023/03/14 06:06:36;;;;;;;9.20;4.70;;;;;;;11.37;32.42;101626.48;108266;1267;72136;-96
2023/03/14 06:13:57;;;;;;;6.10;2.90;;;;;;;11.20;31.91;101629.88;108421;1268;59158;-96
2023/03/14 06:16:29;;;;;;;5.60;3.30;;;;;;;11.22;32.33;101625.45;108177;1268;73071;-92
2023/03/14 06:19:24;;;;;;;4.80;3.40;;;;;;;11.46;32.04;101625.73;106663;1268;64160;-96
2023/03/14 06:21:56;;;;;;;6.50;3.80;;;;;;;11.60;31.76;101624.83;106275;1268;72638;-95
2023/03/14 06:24:34;;;;;;;8.90;5.90;;;;;;;11.74;31.70;101624.34;106586;1268;60554;-93
2023/03/14 06:27:25;;;;;;;5.80;4.00;;;;;;;12.07;31.61;101624.35;107223;1267;61334;-93
2023/03/14 06:29:56;;;;;;;9.00;6.00;;;;;;;12.36;30.77;101620.94;107462;1268;72496;-91
2023/03/14 06:32:26;;;;;;;8.70;6.00;;;;;;;12.38;30.63;101620.46;107813;1268;64531;-95
2023/03/14 06:35:22;;;;;;;9.80;4.80;;;;;;;12.54;30.47;101627.20;108072;1268;71923;-95
2023/03/14 06:38:06;;;;;;;7.10;4.30;;;;;;;12.58;30.29;101628.23;107077;1268;60286;-96
2023/03/14 06:40:37;;;;;;;6.90;3.40;;;;;;;12.37;30.52;101622.10;107805;1268;59665;-96
2023/03/14 06:43:42;;;;;;;8.00;3.40;;;;;;;12.24;30.99;101625.57;108464;1261;74868;-94
2023/03/14 06:46:12;;;;;;;6.30;3.40;;;;;;;12.35;30.97;101629.90;108497;1266;62894;-95
2023/03/14 06:48:48;;;;;;;8.10;3.20;;;;;;;12.53;30.80;101625.16;108102;1273;72941;-93
2023/03/14 06:51:27;;;;;;;6.30;3.40;;;;;;;12.83;30.58;101623.73;107487;1270;60377;-92
2023/03/14 06:53:58;;;;;;;6.80;3.80;;;;;;;13.22;30.42;101621.14;106564;1267;59615;-94
2023/03/14 06:56:41;;;;;;;5.20;3.20;;;;;;;13.54;29.87;101621.29;106593;1267;74842;-92
2023/03/14 06:59:12;;;;;;;6.70;3.20;;;;;;;13.67;29.53;101617.75;106706;1267;64278;-95
2023/03/14 07:01:56;;;;;;;4.20;3.10;;;;;;;13.69;29.33;101622.57;107365;1267;72042;-95
2023/03/14 07:05:18;;;;;;;7.50;2.80;;;;;;;13.55;29.30;101622.47;108308;1266;62042;-95
2023/03/14 07:19:19;;;;;;;5.30;3.30;;;;;;;13.87;29.12;101619.75;102498;1261;71947;-94
2023/03/14 07:22:02;;;;;;;5.10;2.70;;;;;;;14.36;28.82;101621.98;107930;1268;60660;-92
2023/03/14 07:24:58;;;;;;;2.90;2.30;;;;;;;14.70;28.27;101618.02;108561;1264;60489;-94
2023/03/14 07:31:23;;;;;;;5.20;3.90;;;;;;;15.37;26.70;101615.23;101867;1267;63379;-94
2023/03/14 07:41:06;;;;;;;6.30;5.10;;;;;;;15.67;26.12;101605.89;108483;1264;58916;-95
2023/03/14 07:44:55;;;;;;;10.00;4.80;;;;;;;16.10;25.83;101597.77;108234;1263;71582;-95
2023/03/14 07:47:44;;;;;;;8.40;3.80;;;;;;;16.40;25.44;101598.37;108790;1267;62744;-93
2023/03/14 07:51:03;;;;;;;7.70;3.40;;;;;;;16.65;24.87;101596.65;108600;1267;73197;-92
2023/03/14 07:57:37;;;;;;;12.50;8.80;;;;;;;17.27;23.89;101593.35;97337;1264;59532;-95
2023/03/14 08:00:40;;;;;;;9.50;7.20;;;;;;;17.42;24.05;101592.61;107926;1266;72630;-96
2023/03/14 08:03:42;;;;;;;5.60;4.30;;;;;;;17.71;24.00;101585.34;107952;1267;63132;-93
2023/03/14 08:06:25;;;;;;;5.90;3.70;;;;;;;17.95;23.45;101585.31;107730;1267;73314;-94
2023/03/14 08:09:09;;;;;;;6.00;4.00;;;;;;;18.13;23.38;101583.45;107878;1267;60183;-96
2023/03/14 08:12:09;;;;;;;5.00;3.50;;;;;;;18.34;23.27;101580.41;108263;1268;59091;-94
2023/03/14 08:15:02;;;;;;;6.30;3.80;;;;;;;18.35;22.87;101577.13;107431;1272;73260;-95
2023/03/14 08:30:44;;;;;;;12.60;7.90;;;;;;;18.09;23.13;101561.99;96459;1261;71726;-94
2023/03/14 08:48:22;;;;;;;8.00;5.80;;;;;;;18.86;22.89;101552.95;101328;1265;71798;-96
2023/03/14 08:52:26;;;;;;;7.40;5.30;;;;;;;19.29;22.40;101541.85;107393;1269;64961;-93
2023/03/14 08:55:12;;;;;;;7.10;5.30;;;;;;;19.47;22.27;101544.79;105810;1277;72658;-92
2023/03/14 08:57:40;;;;;;;9.70;5.90;;;;;;;19.62;22.09;101543.52;105300;1277;59611;-93
2023/03/14 09:00:15;;;;;;;7.50;6.00;;;;;;;19.73;21.77;101542.30;105598;1279;62424;-93
2023/03/14 09:02:44;;;;;;;9.80;8.00;;;;;;;19.79;22.12;101544.13;105726;1280;72012;-94
2023/03/14 09:05:35;;;;;;;17.70;11.70;;;;;;;19.86;21.71;101541.05;106380;1279;63881;-94
2023/03/14 09:08:24;;;;;;;12.70;9.30;;;;;;;19.69;22.08;101540.48;107814;1267;72431;-95
2023/03/14 09:11:35;;;;;;;20.30;13.30;;;;;;;19.59;22.62;101530.15;108682;1263;59509;-93
2023/03/14 09:22:46;;;;;;;13.40;8.00;;;;;;;19.81;22.37;101507.04;108698;1263;63717;31
2023/03/14 09:25:43;;;;;;;14.60;8.70;;;;;;;19.97;22.61;101504.11;108622;1263;72646;-92
2023/03/14 09:39:30;;;;;;;14.40;9.30;;;;;;;19.92;22.18;101498.80;106164;1267;64447;-94
2023/03/14 09:52:41;;;;;;;12.90;9.50;;;;;;;20.14;22.69;101475.76;85994;1287;72619;-94
2023/03/14 09:55:30;;;;;;;15.80;9.70;;;;;;;20.26;22.40;101468.14;108082;1270;62622;-95
2023/03/14 10:01:45;;;;;;;11.60;8.00;;;;;;;20.88;21.96;101472.81;108665;1262;59305;-94
2023/03/14 10:04:32;;;;;;;10.10;7.10;;;;;;;21.15;20.87;101464.23;108599;1267;61289;-91
2023/03/14 10:07:04;;;;;;;20.60;17.00;;;;;;;21.13;20.86;101450.52;107400;1267;75319;-93
2023/03/14 10:09:35;;;;;;;14.30;12.60;;;;;;;21.23;21.07;101452.24;108211;1267;63577;-94
2023/03/14 10:12:36;;;;;;;10.60;9.50;;;;;;;21.40;20.90;101451.59;108192;1267;74180;-96
2023/03/14 10:19:20;;;;;;;9.70;6.30;;;;;;;21.48;20.77;101424.18;108489;1263;60567;-95
2023/03/14 10:22:45;;;;;;;11.80;7.20;;;;;;;21.35;20.99;101413.58;108410;1270;72945;-93
2023/03/14 10:26:27;;;;;;;8.90;6.80;;;;;;;21.41;20.48;101420.00;108552;1270;63921;-95
2023/03/14 10:29:33;;;;;;;11.40;6.70;;;;;;;20.96;21.18;101410.91;108519;1269;72798;-94
2023/03/14 10:32:55;;;;;;;8.40;6.10;;;;;;;20.70;21.77;101403.77;107929;1273;58983;-96
2023/03/14 10:40:09;;;;;;;7.50;6.00;;;;;;;21.07;22.24;101393.11;108566;1264;72653;-95
2023/03/14 10:42:44;;;;;;;8.70;6.30;;;;;;;21.26;22.26;101384.55;107626;1268;65375;-93
2023/03/14 10:45:42;;;;;;;6.60;5.70;;;;;;;21.50;22.43;101384.29;108243;1265;72478;-94
2023/03/14 10:48:31;;;;;;;6.40;5.70;;;;;;;21.65;22.62;101380.22;108482;1267;60399;-92
2023/03/14 10:51:10;;;;;;;8.90;7.70;;;;;;;21.83;22.20;101373.55;108615;1267;60380;-94
2023/03/14 10:54:23;;;;;;;12.70;10.50;;;;;;;21.90;22.28;101367.66;106399;1289;600086;-94
2023/03/14 10:57:20;;;;;;;11.10;7.00;;;;;;;21.86;22.15;101369.17;108476;1265;63366;-94
2023/03/14 11:00:08;;;;;;;5.90;5.00;;;;;;;21.68;21.80;101364.10;108258;1267;62476;-91
2023/03/14 11:03:12;;;;;;;7.90;5.00;;;;;;;21.51;22.09;101357.17;108209;1266;71424;-93
2023/03/14 11:06:30;;;;;;;5.80;5.10;;;;;;;21.35;22.08;101355.79;107304;1273;64892;-93
2023/03/14 11:09:10;;;;;;;7.00;5.10;;;;;;;21.37;22.40;101346.02;107379;1274;644175;-92
2023/03/14 11:11:39;;;;;;;5.80;4.40;;;;;;;21.41;22.82;101344.27;107248;1273;60383;-94
2023/03/14 11:18:17;;;;;;;6.30;4.90;;;;;;;21.27;22.24;101343.08;108461;1270;71509;-92
2023/03/14 11:22:32;;;;;;;6.40;4.50;;;;;;;20.66;23.26;101325.24;107661;1270;63933;-94
2023/03/14 11:26:21;;;;;;;5.40;3.40;;;;;;;20.59;23.49;101315.87;108678;1270;74913;-93
2023/03/14 11:29:49;;;;;;;10.10;7.30;;;;;;;20.69;23.87;101311.42;108431;1270;59507;-95
2023/03/14 11:33:08;;;;;;;5.90;5.20;;;;;;;20.85;23.57;101308.93;108342;1273;61555;-91
2023/03/14 11:35:59;;;;;;;10.20;5.90;;;;;;;20.78;23.81;101309.30;108240;1273;73020;-91
2023/03/14 11:38:29;;;;;;;8.90;5.40;;;;;;;20.74;23.84;101306.69;108092;1273;63900;-90
2023/03/14 11:41:06;;;;;;;6.90;5.80;;;;;;;20.67;24.05;101303.27;108253;1273;72456;-94
2023/03/14 11:44:27;;;;;;;7.60;6.00;;;;;;;20.41;24.34;101289.59;108222;1273;59051;-94
2023/03/14 12:08:04;;;;;;;;;;;;;;;;;;;;;
2023/03/14 12:12:04;;;;;;;6.50;4.20;;;;;;;18.12;25.79;101259.98;106986;1270;62574;31
2023/03/14 12:16:15;;;;;;;6.00;5.20;;;;;;;17.78;26.68;101245.73;107679;1267;72806;31
2023/03/14 12:20:51;;;;;;;7.60;5.30;;;;;;;17.67;27.15;101237.23;107910;1270;59536;-95
2023/03/14 12:55:57;;;;;;;4.30;3.20;;;;;;;15.00;31.05;101217.52;107587;1270;61045;-91
2023/03/14 12:59:33;;;;;;;3.90;2.80;;;;;;;14.56;31.79;101205.20;106943;1279;59117;-96
2023/03/14 13:03:01;;;;;;;3.50;3.20;;;;;;;14.25;32.31;101198.90;107646;1279;75585;-96
2023/03/14 13:05:58;;;;;;;4.30;3.10;;;;;;;14.09;32.65;101195.39;107528;1280;63222;-93
2023/03/14 13:22:40;;;;;;;4.50;2.40;;;;;;;13.87;33.41;101169.23;107304;1282;611895;-95
2023/03/14 13:26:00;;;;;;;2.90;1.90;;;;;;;13.65;33.56;101158.17;100521;1268;10131278;-96
2023/03/14 13:28:32;;;;;;;3.50;2.10;;;;;;;13.44;33.85;101147.60;106941;1270;65381;-95
2023/03/14 13:31:05;;;;;;;3.50;2.00;;;;;;;13.34;33.66;101142.08;107312;1263;71767;-94
2023/03/14 13:33:41;;;;;;;4.40;2.30;;;;;;;13.22;33.50;101144.21;108495;1264;60045;-94
2023/03/14 13:36:10;;;;;;;2.90;1.60;;;;;;;12.96;33.61;101143.69;108781;1264;60169;-94
2023/03/14 13:39:32;;;;;;;10.00;8.70;;;;;;;12.76;34.07;101136.70;108196;1264;72224;-95
2023/03/14 13:42:02;;;;;;;5.10;4.10;;;;;;;12.61;34.50;101131.44;108382;1264;63774;-94
2023/03/14 13:44:38;;;;;;;3.10;2.10;;;;;;;12.55;34.63;101130.55;108302;1264;72625;-94
2023/03/14 13:47:14;;;;;;;3.60;2.00;;;;;;;12.47;35.06;101121.41;107348;1267;60013;-95
2023/03/14 13:49:42;;;;;;;2.40;1.80;;;;;;;12.37;35.23;101114.29;107424;1264;59571;-94
2023/03/14 13:52:36;;;;;;;4.00;2.10;;;;;;;12.31;35.03;101108.69;107971;1264;71977;-94
2023/03/14 13:55:22;;;;;;;4.00;1.70;;;;;;;12.21;34.85;101108.59;108960;1267;63832;-96
2023/03/14 13:57:54;;;;;;;4.20;1.90;;;;;;;12.12;34.77;101107.00;108903;1264;72846;-96
2023/03/14 14:00:40;;;;;;;4.80;2.30;;;;;;;12.02;34.45;101106.17;107868;1263;61640;-96
2023/03/14 14:03:09;;;;;;;7.40;2.60;;;;;;;11.93;34.47;101102.69;106949;1267;60928;-95
2023/03/14 14:05:41;;;;;;;4.50;2.80;;;;;;;11.86;34.52;101099.91;106580;1263;72880;-96
2023/03/14 14:08:12;;;;;;;3.60;2.50;;;;;;;11.83;34.74;101094.62;107405;1264;63798;-95
2023/03/14 14:10:45;;;;;;;3.40;2.40;;;;;;;11.86;34.91;101097.13;107587;1263;72168;-96
2023/03/14 14:13:18;;;;;;;4.10;1.70;;;;;;;11.80;34.94;101097.09;108212;1263;59362;-93
2023/03/14 14:15:58;;;;;;;2.10;1.60;;;;;;;11.72;34.31;101101.02;108669;1263;61269;-96
2023/03/14 14:22:10;;;;;;;;;;;;;;;;;;;;;
2023/03/14 14:32:40;;;;;;;9.20;5.90;;;;;;;11.33;34.78;101072.75;101007;1274;58763;-96
2023/03/14 14:35:48;;;;;;;5.30;3.50;;;;;;;11.33;34.79;101073.27;108232;1274;72807;-94
2023/03/14 14:38:17;;;;;;;6.60;2.30;;;;;;;11.31;34.79;101072.54;108340;1274;63632;-94
2023/03/14 14:41:02;;;;;;;6.10;3.10;;;;;;;11.29;34.82;101075.64;107982;1273;72566;-95
2023/03/14 14:44:12;;;;;;;5.50;2.60;;;;;;;11.21;35.01;101067.30;108304;1274;59376;-96
2023/03/14 14:46:50;;;;;;;6.10;3.80;;;;;;;11.17;35.36;101072.23;108138;1274;60558;-96
2023/03/14 14:49:35;;;;;;;7.30;4.80;;;;;;;11.15;35.59;101070.57;108632;1270;73026;-96
2023/03/14 14:52:45;;;;;;;6.00;3.20;;;;;;;11.16;35.57;101067.05;108460;1271;63670;-95
2023/03/14 14:55:20;;;;;;;5.00;2.70;;;;;;;11.15;35.50;101067.46;107963;1270;72581;-95
2023/03/14 14:58:19;;;;;;;5.10;2.90;;;;;;;11.09;35.59;101065.87;106255;1272;60366;-96
2023/03/14 15:01:40;;;;;;;5.70;2.70;;;;;;;11.07;35.64;101072.98;106629;1276;61923;-96
2023/03/14 15:04:40;;;;;;;4.90;3.20;;;;;;;11.02;35.64;101072.74;106769;1279;73724;-95
2023/03/14 15:14:38;;;;;;;5.50;2.70;;;;;;;10.91;35.22;101074.00;108181;1265;58927;-96
2023/03/14 15:17:46;;;;;;;4.20;2.70;;;;;;;10.84;35.39;101069.85;107800;1265;61022;-96
2023/03/14 15:20:36;;;;;;;5.30;2.30;;;;;;;10.75;35.52;101071.02;107164;1273;71525;-96
2023/03/14 15:34:33;;;;;;;3.60;2.30;;;;;;;10.46;36.37;101069.95;107866;1272;60803;-96
2023/03/14 15:38:55;;;;;;;6.30;2.80;;;;;;;10.41;36.62;101068.61;106470;1289;612551;-96
2023/03/14 15:45:20;;;;;;;7.40;4.80;;;;;;;10.29;36.77;101077.26;107698;1274;59310;-96
2023/03/14 15:49:52;;;;;;;3.50;2.60;;;;;;;10.18;36.96;101074.98;107669;1268;71507;31
2023/03/14 15:54:11;;;;;;;7.00;4.10;;;;;;;10.06;37.11;101073.55;99562;1279;63210;-95
2023/03/14 15:57:58;;;;;;;7.00;3.60;;;;;;;9.95;37.52;101073.53;107707;1279;59264;-94
2023/03/14 16:02:32;;;;;;;8.90;4.30;;;;;;;9.92;37.75;101078.09;104533;1295;614596;-96
2023/03/14 16:05:11;;;;;;;8.50;5.20;;;;;;;9.83;37.98;101073.45;106946;1267;59161;-94
2023/03/14 16:08:03;;;;;;;7.70;4.40;;;;;;;9.82;38.13;101080.48;107174;1266;62458;-96
2023/03/14 16:19:36;;;;;;;;;;;;;;;;;;;;;
2023/03/14 16:30:14;;;;;;;15.20;5.10;;;;;;;9.40;38.37;101076.40;108432;1266;63731;-96
2023/03/14 16:33:28;;;;;;;8.30;5.10;;;;;;;9.34;38.28;101075.15;107769;1263;75737;-96
2023/03/14 17:54:53;;;;;;;10.00;4.20;;;;;;;8.43;39.47;101027.34;108250;1264;58854;-94
2023/03/14 17:58:55;;;;;;;12.20;5.20;;;;;;;8.39;39.80;101020.52;108531;1262;72291;-95
2023/03/14 18:07:21;;;;;;;6.20;4.40;;;;;;;8.33;40.49;101017.83;105634;1262;71202;-96
2023/03/14 18:10:10;;;;;;;7.10;3.70;;;;;;;8.32;40.71;101020.31;108711;1270;58523;-93
2023/03/14 19:24:19;;;;;;;;;;;;;;;;;;;;;
2023/03/14 19:28:22;;;;;;;7.20;4.00;;;;;;;7.83;45.34;100956.77;108654;1266;59996;-96
2023/03/14 19:42:53;;;;;;;6.20;5.00;;;;;;;7.85;46.17;100952.54;107977;1278;59018;-95
2023/03/14 19:46:04;;;;;;;5.50;4.20;;;;;;;7.87;46.53;100952.95;108794;1264;57809;-96
2023/03/14 20:19:39;;;;;;;5.80;4.70;;;;;;;8.18;47.78;100915.05;106273;1286;58375;-96
2023/03/14 20:24:25;;;;;;;5.60;4.30;;;;;;;8.22;47.84;100905.06;105633;1295;59386;-95
2023/03/14 20:28:46;;;;;;;8.60;5.70;;;;;;;8.25;48.03;100903.58;108691;1263;72626;-95
2023/03/14 20:32:30;;;;;;;9.50;5.50;;;;;;;8.23;48.10;100894.24;106823;1277;63810;-96
2023/03/14 20:36:08;;;;;;;6.90;5.00;;;;;;;8.24;48.43;100894.73;107080;1276;73495;-93
2023/03/14 20:39:17;;;;;;;6.00;4.10;;;;;;;8.20;48.50;100886.40;106751;1276;60658;-96
2023/03/14 20:41:46;;;;;;;4.40;3.10;;;;;;;8.15;48.94;100883.30;106495;1276;59481;-96
2023/03/14 20:44:16;;;;;;;7.30;4.10;;;;;;;8.11;49.18;100881.21;107006;1276;73024;-94
2023/03/14 20:47:05;;;;;;;23.60;5.40;;;;;;;8.10;49.52;100885.44;107268;1280;64024;-96
2023/03/14 20:49:52;;;;;;;5.20;4.60;;;;;;;8.07;49.78;100881.20;106662;1281;72609;-96
2023/03/14 20:52:26;;;;;;;6.00;4.00;;;;;;;8.02;50.00;100876.92;106164;1278;59362;-94
2023/03/14 20:54:57;;;;;;;6.70;3.50;;;;;;;7.97;50.31;100870.86;107096;1280;60220;-96
2023/03/14 20:59:00;;;;;;;4.00;3.50;;;;;;;7.92;50.68;100864.52;108544;1266;74475;-96
2023/03/14 21:14:18;;;;;;;6.80;3.80;;;;;;;7.81;52.32;100839.38;108732;1265;58942;-96
2023/03/14 21:18:08;;;;;;;6.30;4.10;;;;;;;7.79;52.54;100834.77;108526;1262;74352;-96
2023/03/14 21:22:53;;;;;;;7.90;3.80;;;;;;;7.74;53.29;100828.59;107977;1258;65513;31
2023/03/14 21:26:52;;;;;;;6.00;3.90;;;;;;;7.76;54.04;100825.69;108744;1268;73328;-94
